createdAt,value
2024-03-22T10:38:52.882Z,10.2375
2024-03-22T10:41:23.401Z,10.2600
2024-03-22T10:41:23.401Z,10.3000
2024-03-22T10:42:30.215Z,10.3040
2024-03-22T10:43:37.177Z,10.3240
2024-03-22T11:05:43.969Z,10.5818
2024-03-22T11:26:19.312Z,10.7063
2024-03-22T11:26:19.312Z,10.8678
2024-03-22T11:36:33.933Z,11.0189
2024-03-22T11:46:49.301Z,11.1684
2024-03-22T11:57:03.794Z,11.3151
2024-03-22T12:07:18.460Z,11.4587
2024-03-22T12:17:32.971Z,11.6000
2024-03-22T12:27:48.199Z,11.7342
2024-03-22T12:38:02.918Z,11.8511
2024-03-22T12:48:17.387Z,11.9731
2024-03-22T12:58:32.352Z,12.0924
2024-03-22T13:08:47.526Z,12.2113
2024-03-22T13:19:02.748Z,12.3247
2024-03-22T13:29:17.785Z,12.4387
2024-03-22T13:39:32.859Z,12.5389
2024-03-22T13:49:47.855Z,12.6469
2024-03-22T14:00:03.359Z,12.7418
2024-03-22T14:10:18.942Z,12.8320
2024-03-22T14:20:33.836Z,12.9113
2024-03-22T14:30:49.106Z,12.9800
2024-03-22T14:41:03.984Z,13.0298
2024-03-22T14:51:19.236Z,13.0744
2024-03-22T15:01:34.543Z,13.1096
2024-03-22T15:11:50.100Z,13.1444
2024-03-22T15:22:05.263Z,13.1702
2024-03-22T15:32:20.572Z,13.1884
2024-03-22T15:42:35.572Z,13.2040
2024-03-22T15:52:50.592Z,13.1951
2024-03-22T16:03:05.642Z,13.1927
2024-03-22T16:13:20.655Z,13.1860
2024-03-22T16:23:35.659Z,13.1611
2024-03-22T16:33:50.616Z,13.1467
2024-03-22T16:44:05.618Z,13.1096
2024-03-22T16:54:20.564Z,13.0696
2024-03-22T17:04:35.703Z,13.0276
2024-03-22T17:14:50.692Z,12.9738
2024-03-22T17:25:05.694Z,12.9211
2024-03-22T17:35:21.041Z,12.8658
2024-03-22T17:45:36.226Z,12.7956
2024-03-22T17:55:51.279Z,12.7262
2024-03-22T18:06:06.258Z,12.6502
2024-03-22T18:16:21.185Z,12.5716
2024-03-22T18:26:36.242Z,12.4793
2024-03-22T18:36:51.276Z,12.3993
2024-03-22T18:47:06.311Z,12.3124
2024-03-22T18:57:21.092Z,12.2200
2024-03-22T19:07:35.841Z,12.1333
2024-03-22T19:17:50.416Z,12.0391
2024-03-22T19:28:05.056Z,11.9538
2024-03-22T19:38:20.001Z,11.8631
2024-03-22T19:48:34.849Z,11.7807
2024-03-22T19:58:49.437Z,11.6938
2024-03-22T20:09:04.170Z,11.6080
2024-03-22T20:19:18.900Z,11.5196
2024-03-22T20:29:33.387Z,11.4398
2024-03-22T20:39:48.025Z,11.3578
2024-03-22T20:50:02.392Z,11.2747
2024-03-22T21:00:16.414Z,11.1969
2024-03-22T21:10:30.613Z,11.1264
2024-03-22T21:20:44.684Z,11.0507
2024-03-22T21:30:58.963Z,10.9767
2024-03-22T21:41:13.169Z,10.9053
2024-03-22T21:51:27.407Z,10.8340
2024-03-22T22:01:41.552Z,10.7669
2024-03-22T22:11:56.084Z,10.7022
2024-03-22T22:22:10.402Z,10.6407
2024-03-22T22:32:25.649Z,10.5760
2024-03-22T22:42:40.044Z,10.5200
2024-03-22T22:52:54.262Z,10.4578
2024-03-22T23:03:08.515Z,10.4009
2024-03-22T23:13:23.041Z,10.3429
2024-03-22T23:23:37.776Z,10.2898
2024-03-22T23:33:52.171Z,10.2371
2024-03-22T23:44:06.508Z,10.1829
2024-03-22T23:54:21.040Z,10.1249
